sensor_id;sensor_type;location;lat;lon;timestamp;P1;durP1;ratioP1;P2;durP2;ratioP2
37881;SDS011;23724;45.572;12.064;2023-10-13T06:46:44;24.02;;;21.40;;
37881;SDS011;23724;45.572;12.064;2023-10-13T06:51:49;32.50;;;26.50;;
37881;SDS011;23724;45.572;12.064;2023-10-13T06:56:54;33.85;;;28.33;;
37881;SDS011;23724;45.572;12.064;2023-10-13T07:01:59;41.55;;;29.98;;
37881;SDS011;23724;45.572;12.064;2023-10-13T07:07:28;35.47;;;28.17;;
37881;SDS011;23724;45.572;12.064;2023-10-13T07:12:33;37.17;;;29.05;;
37881;SDS011;23724;45.572;12.064;2023-10-13T07:17:38;31.33;;;26.50;;
37881;SDS011;23724;45.572;12.064;2023-10-13T07:22:44;38.50;;;29.83;;
37881;SDS011;23724;45.572;12.064;2023-10-13T07:28:07;28.10;;;23.75;;
37881;SDS011;23724;45.572;12.064;2023-10-13T07:33:14;43.92;;;32.40;;
37881;SDS011;23724;45.572;12.064;2023-10-13T07:38:23;42.78;;;34.78;;
37881;SDS011;23724;45.572;12.064;2023-10-13T07:43:27;40.92;;;31.13;;
37881;SDS011;23724;45.572;12.064;2023-10-13T07:48:32;38.90;;;31.02;;
37881;SDS011;23724;45.572;12.064;2023-10-13T07:53:39;40.97;;;33.47;;
37881;SDS011;23724;45.572;12.064;2023-10-13T12:40:52;51.67;;;46.42;;
37881;SDS011;23724;45.572;12.064;2023-10-13T12:46:34;32.50;;;26.63;;
37881;SDS011;23724;45.572;12.064;2023-10-13T12:51:57;23.73;;;21.23;;
37881;SDS011;23724;45.572;12.064;2023-10-13T12:57:02;23.23;;;19.40;;
37881;SDS011;23724;45.572;12.064;2023-10-13T13:07:19;21.35;;;19.05;;
37881;SDS011;23724;45.572;12.064;2023-10-13T13:12:24;22.70;;;20.13;;
37881;SDS011;23724;45.572;12.064;2023-10-13T13:17:29;18.55;;;16.67;;
37881;SDS011;23724;45.572;12.064;2023-10-13T13:22:34;22.45;;;18.40;;
37881;SDS011;23724;45.572;12.064;2023-10-13T13:27:39;31.02;;;27.77;;
37881;SDS011;23724;45.572;12.064;2023-10-13T13:32:45;28.90;;;23.40;;
37881;SDS011;23724;45.572;12.064;2023-10-13T13:37:50;22.98;;;20.38;;
37881;SDS011;23724;45.572;12.064;2023-10-13T13:42:56;21.38;;;19.13;;
37881;SDS011;23724;45.572;12.064;2023-10-13T13:48:01;19.23;;;17.25;;
37881;SDS011;23724;45.572;12.064;2023-10-13T13:53:11;19.05;;;15.90;;
37881;SDS011;23724;45.572;12.064;2023-10-13T13:58:14;20.70;;;18.38;;
37881;SDS011;23724;45.572;12.064;2023-10-13T14:03:20;20.77;;;16.10;;
37881;SDS011;23724;45.572;12.064;2023-10-13T14:08:36;22.85;;;17.88;;
37881;SDS011;23724;45.572;12.064;2023-10-13T14:13:42;16.95;;;14.68;;
37881;SDS011;23724;45.572;12.064;2023-10-13T14:19:00;24.77;;;19.63;;
37881;SDS011;23724;45.572;12.064;2023-10-13T14:24:10;20.90;;;18.38;;
37881;SDS011;23724;45.572;12.064;2023-10-13T14:29:20;16.50;;;14.20;;
37881;SDS011;23724;45.572;12.064;2023-10-13T14:34:25;24.90;;;21.05;;
37881;SDS011;23724;45.572;12.064;2023-10-13T14:39:30;13.27;;;11.88;;
37881;SDS011;23724;45.572;12.064;2023-10-13T14:44:34;11.25;;;10.15;;
37881;SDS011;23724;45.572;12.064;2023-10-13T14:49:40;21.02;;;16.92;;
37881;SDS011;23724;45.572;12.064;2023-10-13T14:54:44;13.18;;;11.82;;
37881;SDS011;23724;45.572;12.064;2023-10-13T14:59:49;15.80;;;13.65;;
37881;SDS011;23724;45.572;12.064;2023-10-13T15:04:54;17.60;;;15.68;;
37881;SDS011;23724;45.572;12.064;2023-10-13T15:09:58;12.82;;;11.25;;
37881;SDS011;23724;45.572;12.064;2023-10-13T15:15:03;14.85;;;13.30;;
37881;SDS011;23724;45.572;12.064;2023-10-13T15:20:17;20.45;;;17.98;;
37881;SDS011;23724;45.572;12.064;2023-10-13T15:25:24;21.13;;;18.65;;
37881;SDS011;23724;45.572;12.064;2023-10-13T15:30:42;24.27;;;21.40;;
37881;SDS011;23724;45.572;12.064;2023-10-13T15:36:00;17.00;;;15.23;;
37881;SDS011;23724;45.572;12.064;2023-10-13T15:41:05;21.42;;;19.25;;
37881;SDS011;23724;45.572;12.064;2023-10-13T15:46:15;24.25;;;20.25;;
37881;SDS011;23724;45.572;12.064;2023-10-13T15:51:39;19.40;;;17.40;;
37881;SDS011;23724;45.572;12.064;2023-10-13T15:56:44;19.58;;;16.67;;
37881;SDS011;23724;45.572;12.064;2023-10-13T16:01:51;25.45;;;20.63;;
37881;SDS011;23724;45.572;12.064;2023-10-13T16:07:02;23.55;;;20.02;;
37881;SDS011;23724;45.572;12.064;2023-10-13T16:12:06;18.63;;;16.70;;
37881;SDS011;23724;45.572;12.064;2023-10-13T16:17:14;17.15;;;14.55;;
37881;SDS011;23724;45.572;12.064;2023-10-13T16:22:19;17.52;;;15.45;;
37881;SDS011;23724;45.572;12.064;2023-10-13T16:27:23;23.75;;;17.52;;
37881;SDS011;23724;45.572;12.064;2023-10-13T16:32:28;23.73;;;19.13;;
37881;SDS011;23724;45.572;12.064;2023-10-13T16:37:33;13.05;;;11.68;;
37881;SDS011;23724;45.572;12.064;2023-10-13T16:42:39;21.70;;;16.27;;
37881;SDS011;23724;45.572;12.064;2023-10-13T16:47:44;22.38;;;17.45;;
37881;SDS011;23724;45.572;12.064;2023-10-13T16:52:49;18.33;;;16.33;;
37881;SDS011;23724;45.572;12.064;2023-10-13T16:57:54;22.38;;;20.00;;
37881;SDS011;23724;45.572;12.064;2023-10-13T17:02:59;15.23;;;13.68;;
37881;SDS011;23724;45.572;12.064;2023-10-13T17:08:03;22.05;;;18.27;;
37881;SDS011;23724;45.572;12.064;2023-10-13T17:13:09;20.20;;;16.52;;
37881;SDS011;23724;45.572;12.064;2023-10-13T17:18:14;22.73;;;19.95;;
37881;SDS011;23724;45.572;12.064;2023-10-13T17:23:19;17.80;;;15.95;;
37881;SDS011;23724;45.572;12.064;2023-10-13T17:28:24;14.88;;;13.38;;
37881;SDS011;23724;45.572;12.064;2023-10-13T17:33:28;20.48;;;18.33;;
37881;SDS011;23724;45.572;12.064;2023-10-13T17:38:33;16.60;;;14.90;;
37881;SDS011;23724;45.572;12.064;2023-10-13T17:43:38;18.15;;;16.25;;
37881;SDS011;23724;45.572;12.064;2023-10-13T17:48:43;17.92;;;16.05;;
37881;SDS011;23724;45.572;12.064;2023-10-13T17:53:49;19.73;;;17.63;;
37881;SDS011;23724;45.572;12.064;2023-10-13T17:58:56;19.33;;;17.20;;
37881;SDS011;23724;45.572;12.064;2023-10-13T18:04:03;17.38;;;15.50;;
37881;SDS011;23724;45.572;12.064;2023-10-13T18:09:13;17.05;;;15.18;;
37881;SDS011;23724;45.572;12.064;2023-10-13T18:14:17;20.23;;;18.10;;
37881;SDS011;23724;45.572;12.064;2023-10-13T18:19:22;19.05;;;16.70;;
37881;SDS011;23724;45.572;12.064;2023-10-13T18:24:30;22.60;;;19.42;;
37881;SDS011;23724;45.572;12.064;2023-10-13T18:29:36;22.23;;;19.88;;
37881;SDS011;23724;45.572;12.064;2023-10-13T18:34:40;22.33;;;19.92;;
37881;SDS011;23724;45.572;12.064;2023-10-13T18:39:48;21.30;;;18.88;;
37881;SDS011;23724;45.572;12.064;2023-10-13T18:44:55;20.15;;;17.25;;
37881;SDS011;23724;45.572;12.064;2023-10-13T18:49:59;21.55;;;18.00;;
37881;SDS011;23724;45.572;12.064;2023-10-13T18:55:06;22.38;;;19.40;;
37881;SDS011;23724;45.572;12.064;2023-10-13T19:00:10;22.08;;;19.33;;
37881;SDS011;23724;45.572;12.064;2023-10-13T19:05:17;22.05;;;19.27;;
37881;SDS011;23724;45.572;12.064;2023-10-13T19:10:23;19.00;;;17.02;;
37881;SDS011;23724;45.572;12.064;2023-10-13T19:15:36;21.80;;;19.45;;
37881;SDS011;23724;45.572;12.064;2023-10-13T19:20:40;16.60;;;14.80;;
37881;SDS011;23724;45.572;12.064;2023-10-13T19:25:45;17.55;;;14.80;;
37881;SDS011;23724;45.572;12.064;2023-10-13T19:30:50;16.50;;;13.85;;
37881;SDS011;23724;45.572;12.064;2023-10-13T19:35:55;17.42;;;15.30;;
37881;SDS011;23724;45.572;12.064;2023-10-13T19:40:59;15.88;;;14.15;;
37881;SDS011;23724;45.572;12.064;2023-10-13T19:46:04;19.45;;;15.43;;
37881;SDS011;23724;45.572;12.064;2023-10-13T19:51:09;15.23;;;13.63;;
37881;SDS011;23724;45.572;12.064;2023-10-13T19:56:16;11.32;;;10.15;;
37881;SDS011;23724;45.572;12.064;2023-10-13T20:01:23;15.77;;;13.50;;
37881;SDS011;23724;45.572;12.064;2023-10-13T20:06:29;15.38;;;13.25;;
37881;SDS011;23724;45.572;12.064;2023-10-13T20:11:33;14.60;;;13.07;;
37881;SDS011;23724;45.572;12.064;2023-10-13T20:16:39;15.88;;;14.27;;
37881;SDS011;23724;45.572;12.064;2023-10-13T20:21:44;18.05;;;16.13;;
37881;SDS011;23724;45.572;12.064;2023-10-13T20:26:48;14.30;;;12.77;;
37881;SDS011;23724;45.572;12.064;2023-10-13T20:31:53;14.63;;;12.68;;
37881;SDS011;23724;45.572;12.064;2023-10-13T20:37:00;16.42;;;13.88;;
37881;SDS011;23724;45.572;12.064;2023-10-13T20:42:04;17.10;;;15.38;;
37881;SDS011;23724;45.572;12.064;2023-10-13T20:47:09;15.10;;;13.50;;
37881;SDS011;23724;45.572;12.064;2023-10-13T20:52:18;16.92;;;13.50;;
37881;SDS011;23724;45.572;12.064;2023-10-13T20:57:24;14.82;;;13.18;;
37881;SDS011;23724;45.572;12.064;2023-10-13T21:02:29;14.63;;;13.13;;
37881;SDS011;23724;45.572;12.064;2023-10-13T21:07:36;15.20;;;13.60;;
37881;SDS011;23724;45.572;12.064;2023-10-13T21:12:42;15.60;;;13.98;;
37881;SDS011;23724;45.572;12.064;2023-10-13T21:17:49;15.18;;;12.18;;
37881;SDS011;23724;45.572;12.064;2023-10-13T21:22:54;15.23;;;13.30;;
37881;SDS011;23724;45.572;12.064;2023-10-13T21:27:58;15.98;;;13.23;;
37881;SDS011;23724;45.572;12.064;2023-10-13T21:33:06;17.38;;;15.02;;
37881;SDS011;23724;45.572;12.064;2023-10-13T21:38:10;13.95;;;12.45;;
37881;SDS011;23724;45.572;12.064;2023-10-13T21:43:19;18.20;;;15.02;;
37881;SDS011;23724;45.572;12.064;2023-10-13T21:48:24;19.27;;;16.90;;
37881;SDS011;23724;45.572;12.064;2023-10-13T21:53:31;19.25;;;15.65;;
37881;SDS011;23724;45.572;12.064;2023-10-13T21:58:36;18.15;;;16.02;;
37881;SDS011;23724;45.572;12.064;2023-10-13T22:03:41;17.13;;;14.90;;
37881;SDS011;23724;45.572;12.064;2023-10-13T22:08:46;17.88;;;15.23;;
37881;SDS011;23724;45.572;12.064;2023-10-13T22:13:52;15.02;;;13.50;;
37881;SDS011;23724;45.572;12.064;2023-10-13T22:18:56;15.50;;;13.90;;
37881;SDS011;23724;45.572;12.064;2023-10-13T22:24:00;14.63;;;13.13;;
37881;SDS011;23724;45.572;12.064;2023-10-13T22:29:04;18.80;;;15.30;;
37881;SDS011;23724;45.572;12.064;2023-10-13T22:34:10;16.58;;;14.88;;
37881;SDS011;23724;45.572;12.064;2023-10-13T22:39:16;16.60;;;14.40;;
37881;SDS011;23724;45.572;12.064;2023-10-13T22:44:28;12.88;;;11.57;;
37881;SDS011;23724;45.572;12.064;2023-10-13T22:49:32;16.63;;;14.35;;
37881;SDS011;23724;45.572;12.064;2023-10-13T22:54:37;16.98;;;15.15;;
37881;SDS011;23724;45.572;12.064;2023-10-13T22:59:44;14.98;;;12.93;;
37881;SDS011;23724;45.572;12.064;2023-10-13T23:04:50;16.98;;;15.00;;
37881;SDS011;23724;45.572;12.064;2023-10-13T23:09:55;14.52;;;13.02;;
37881;SDS011;23724;45.572;12.064;2023-10-13T23:15:03;13.90;;;12.50;;
37881;SDS011;23724;45.572;12.064;2023-10-13T23:20:11;12.13;;;10.93;;
37881;SDS011;23724;45.572;12.064;2023-10-13T23:25:19;14.68;;;12.52;;
37881;SDS011;23724;45.572;12.064;2023-10-13T23:30:23;14.35;;;12.85;;
37881;SDS011;23724;45.572;12.064;2023-10-13T23:35:28;16.00;;;14.30;;
37881;SDS011;23724;45.572;12.064;2023-10-13T23:40:34;17.10;;;14.35;;
37881;SDS011;23724;45.572;12.064;2023-10-13T23:51:08;17.60;;;14.63;;
37881;SDS011;23724;45.572;12.064;2023-10-13T23:56:13;15.75;;;14.13;;
